Flight Track Log - Related Links

Times and Time Zones

All times are in EDT time to prevent confusion due to time zone crossing. See the N6030E flight status page for this flight to view local times or setup timezone preferences in your user account.

Time Position Orientation Groundspeed Altitude Reporting Facility
EDT Latitude Longitude Course Direction KTS MPH feet Rate Location/Type
Tue 09:09:42 PM 31.1036 -81.4175 180° South 94 108 2,300  Level Jacksonville Center
Tue 09:10:12 PM 31.0933 -81.4247 211° Southwest 97 112 2,500 627 Climbing Jacksonville Center
Tue 09:10:49 PM 31.0767 -81.4322 201° Southwest 101 116 3,000 680 Climbing Jacksonville Center
Tue 09:11:49 PM 31.0539 -81.4472 209° Southwest 106 122 3,600 600 Climbing Jacksonville Center
Tue 09:12:49 PM 31.0308 -81.4475 181° South 100 115 4,200 550 Climbing Jacksonville Center
Tue 09:13:49 PM 31.0058 -81.4408 167° South 90 104 4,700 550 Climbing Jacksonville Center
Tue 09:14:00 PM 31.0341 -81.4333 180° South  Level FlightAware Approximate
Tue 09:14:49 PM 30.9806 -81.4361 171° South 90 104 5,300  Level Jacksonville Center
Tue 09:15:49 PM 30.9575 -81.4317 171° South 90 104 5,700 400 Climbing Jacksonville Center
Tue 09:16:49 PM 30.9325 -81.4272 171° South 90 104 6,100 200 Climbing Jacksonville Center
Tue 09:17:49 PM 30.9053 -81.4206 168° South 90 104 6,100 -50 Level Jacksonville Center
Tue 09:18:49 PM 30.8761 -81.4161 173° South 90 104 6,000 -77 Descending Jacksonville Center
Tue 09:20:25 PM 30.8361 -81.4047 166° South 91 105 5,900 -38 Descending Jacksonville Center
Tue 09:21:25 PM 30.8111 -81.4025 176° South 93 107 5,900 50 Level Jacksonville Center
Tue 09:22:26 PM 30.7839 -81.3958 168° South 96 110 6,000  Climbing Jacksonville Center
Tue 09:23:27 PM 30.7567 -81.3914 172° South 94 108 5,900 -52 Descending Jacksonville Center
Tue 09:24:21 PM 30.7317 -81.3869 171° South 93 107 5,900  Level Jacksonville Center
Tue 09:25:22 PM 30.7086 -81.3850 176° South 94 108 5,900  Level Jacksonville Center
Tue 09:26:23 PM 30.6814 -81.3756 163° South 95 109 5,900  Level Jacksonville Center
Tue 09:27:30 PM 30.6519 -81.3714 173° South 93 107 5,900  Level Jacksonville Center
Tue 09:28:24 PM 30.6289 -81.3667 170° South 94 108 5,900  Level Jacksonville Center
Tue 09:29:25 PM 30.6019 -81.3625 172° South 93 107 5,900  Level Jacksonville Center
Tue 09:30:26 PM 30.5767 -81.3581 171° South 93 107 5,900  Level Jacksonville Center
Tue 09:31:27 PM 30.5517 -81.3536 171° South 93 107 5,900  Level Jacksonville Center
Tue 09:32:27 PM 30.5264 -81.3467 167° South 93 107 5,900  Level Jacksonville Center
Tue 09:33:28 PM 30.5014 -81.3422 171° South 91 105 5,900 49 Level Jacksonville Center
Tue 09:34:29 PM 30.4764 -81.3381 172° South 88 101 6,000 49 Climbing Jacksonville Center
Tue 09:35:30 PM 30.4511 -81.3336 171° South 92 106 6,000 -47 Level Jacksonville Center
Tue 09:36:36 PM 30.4219 -81.3267 168° South 93 107 5,900 -47 Descending Jacksonville Center
Tue 09:37:37 PM 30.3967 -81.3225 172° South 91 105 5,900  Level Jacksonville Center
Tue 09:38:38 PM 30.3694 -81.3203 176° South 91 105 5,900 50 Level Jacksonville Center
Tue 09:39:38 PM 30.3464 -81.3136 166° South 92 106 6,000  Climbing Jacksonville Center
Tue 09:40:39 PM 30.3214 -81.3092 171° South 91 105 5,900 -49 Descending Jacksonville Center
Tue 09:41:40 PM 30.2942 -81.3025 168° South 90 104 5,900  Level Jacksonville Center
Tue 09:42:28 PM 30.2753 -81.3003 174° South 90 104 5,900  Level Jacksonville Center
Tue 09:43:35 PM 30.2481 -81.2936 168° South 90 104 5,900  Level Jacksonville Center
Tue 09:44:36 PM 30.2189 -81.2892 172° South 93 107 5,900  Level Jacksonville Center
Tue 09:45:36 PM 30.1958 -81.2847 171° South 91 105 5,900  Level Jacksonville Center
Tue 09:46:37 PM 30.1686 -81.2781 168° South 93 107 5,900  Level Jacksonville Center
Tue 09:47:38 PM 30.1456 -81.2761 176° South 92 106 5,900  Level Jacksonville Center
Tue 09:48:38 PM 30.1183 -81.2717 172° South 91 105 5,900  Level Jacksonville Center
Tue 09:49:39 PM 30.0933 -81.2650 167° South 91 105 5,900  Level Jacksonville Center
Tue 09:50:34 PM 30.0703 -81.2581 165° South 89 102 5,900  Level Jacksonville Center
Tue 09:51:34 PM 30.0453 -81.2561 176° South 91 105 5,900 50 Level Jacksonville Center
Tue 09:52:35 PM 30.0222 -81.2494 166° South 92 106 6,000  Climbing Jacksonville Center
Tue 09:53:42 PM 29.9950 -81.2472 176° South 90 104 5,900 -49 Descending Jacksonville Center
Tue 09:54:37 PM 29.9719 -81.2406 166° South 90 104 5,900  Level Jacksonville Center
Tue 09:55:56 PM 29.9383 -81.2339 170° South 92 106 5,900  Level Jacksonville Center
Tue 09:56:57 PM 29.9133 -81.2297 172° South 90 104 5,900 50 Level Jacksonville Center
Tue 09:57:57 PM 29.8883 -81.2300 181° South 85 98 6,000 47 Climbing Jacksonville Center
Tue 09:59:04 PM 29.8611 -81.2258 172° South 87 100 6,000  Level Jacksonville Center
Tue 09:59:59 PM 29.8422 -81.2164 157° South 91 105 6,000 -52 Level Jacksonville Center
Tue 10:00:59 PM 29.8169 -81.2122 172° South 90 104 5,900 -347 Descending Jacksonville Center
Tue 10:02:00 PM 29.7878 -81.2150 185° South 105 121 5,300 -595 Descending Jacksonville Center
Tue 10:03:00 PM 29.7586 -81.2178 185° South 105 121 4,700 -614 Descending Jacksonville Center
Tue 10:04:07 PM 29.7272 -81.2161 177° South 103 119 4,000 -609 Descending Jacksonville Center
Tue 10:05:08 PM 29.6939 -81.2167 181° South 103 119 3,400 -545 Descending Jacksonville Center
Tue 10:06:08 PM 29.6667 -81.2169 181° South 102 117 2,900 -198 Descending Jacksonville Center
Tue 10:07:09 PM 29.6397 -81.2175 181° South 97 112 3,000 49 Climbing Jacksonville Center
Tue 10:08:10 PM 29.6125 -81.2181 181° South 99 114 3,000  Level Jacksonville Center
Tue 10:09:04 PM 29.5875 -81.2208 186° South 101 116 3,000  Level Jacksonville Center
Tue 10:10:05 PM 29.5603 -81.2214 181° South 96 110 3,000  Level Jacksonville Center
Tue 10:11:05 PM 29.5333 -81.2242 185° South 95 109 3,000 -50 Level Jacksonville Center
Tue 10:12:06 PM 29.5083 -81.2244 181° South 94 108 2,900  Descending Jacksonville Center
Tue 10:13:07 PM 29.4811 -81.2275 186° South 93 107 3,000 50 Climbing Jacksonville Center
Tue 10:14:07 PM 29.4539 -81.2278 181° South 95 109 3,000  Level Jacksonville Center
Tue 10:15:08 PM 29.4289 -81.2283 181° South 96 110 3,000  Level Jacksonville Center
Tue 10:16:14 PM 29.3997 -81.2311 185° South 96 110 3,000  Level Jacksonville Center
Tue 10:17:15 PM 29.3725 -81.2317 181° South 98 113 3,000  Level Jacksonville Center
Tue 10:18:16 PM 29.3433 -81.2322 181° South 97 112 3,000  Level Jacksonville Center
Tue 10:19:22 PM 29.3161 -81.2278 172° South 94 108 3,000  Level Jacksonville Center
Tue 10:20:17 PM 29.2933 -81.2233 170° South 90 104 3,000  Level Jacksonville Center
Tue 10:21:17 PM 29.2661 -81.2192 172° South 93 107 3,000  Level Jacksonville Center
Tue 10:22:18 PM 29.2408 -81.2147 171° South 91 105 3,000  Level Jacksonville Center
Tue 10:23:25 PM 29.2117 -81.2106 173° South 92 106 3,000 50 Level Jacksonville Center
Tue 10:24:19 PM 29.1886 -81.2061 170° South 91 105 3,100 50 Climbing Jacksonville Center
Tue 10:25:26 PM 29.1614 -81.1994 168° South 94 108 3,100  Level Jacksonville Center
Tue 10:26:27 PM 29.1342 -81.1953 172° South 88 101 3,100  Level Jacksonville Center
Tue 10:27:27 PM 29.1111 -81.1908 170° South 91 105 3,100  Level Jacksonville Center
Tue 10:28:28 PM 29.0861 -81.1889 176° South 94 108 3,100 -94 Level Jacksonville Center
Tue 10:29:34 PM 29.0611 -81.1847 172° South 94 108 2,900 -331 Descending Jacksonville Center
Tue 10:30:35 PM 29.0339 -81.1781 168° South 97 112 2,400 -541 Descending Jacksonville Center
Tue 10:31:36 PM 29.0083 -81.1569 144° Southeast 95 109 1,800 -397 Descending Jacksonville Center
Tue 10:32:36 PM 28.9894 -81.1431 147° Southeast 105 121 1,600 -52 Descending Jacksonville Center
Tue 10:33:31 PM 28.9872 -81.1242 98° East 65 75 1,700 58 Climbing Jacksonville Center
Tue 10:34:19 PM 28.9889 -81.1075 83° East 67 77 1,700  Level Jacksonville Center

Login

Don't have an account? Register now (free) for customized features, flight alerts, and more!